Spindrift — WDJ7329 — position and weather

sailwx.info

Track history (hours):
 
Tides and Currents Weather Stations Pressure Air Temp Water Temp Dewpoint Dewpoint Depression Visibility Wind Speed Wind Dir Waves Ship Positions

Spindrift

Owner: Byrne, Anthony R, Buffalo, NY. More information available from US FCC via Universal Licensing System and Coast Guard Vessel Documentation Center.

Last reported at 2018-Jun-09 18:59 UTC. Time now 2018-Jun-20 20:49 UTC.
Position N 37°02' W 024°29'.
Warning: this ship's position is 11 days out of date.

Length 17 m.

Type: Sailing vessel. MMSI: 368005630.

Date/timePositionNaut miles runAvg speedWind from/ knotsBaromVisibWave heightAir tempDewpointWater temp
2018-Jun-09 18:59N 37°02' W 024°29'3 6.2
2018-Jun-09 18:29N 37°01' W 024°33'3 6.3
2018-Jun-09 17:59N 37°00' W 024°37'3 5.6
2018-Jun-09 17:30N 36°60' W 024°40'1 0.6
2018-Jun-09 15:51N 36°59' W 024°39'5 6.4
2018-Jun-09 15:00N 36°58' W 024°46'3 5.9
2018-Jun-09 14:30N 36°57' W 024°50'3 6.0
2018-Jun-09 14:00N 36°56' W 024°53'4 7.0
2018-Jun-09 13:30N 36°56' W 024°58'3 6.9
2018-Jun-09 13:00N 36°55' W 025°02'3 6.0
2018-Jun-09 12:30N 36°55' W 025°05'3 6.1
2018-Jun-09 12:00N 36°56' W 025°09'0 0.8
2018-Jun-09 11:30N 36°56' W 025°09'0 0.4
2018-Jun-09 10:15N 36°57' W 025°09'0 0.0
2018-Jun-07 21:08N 36°57' W 025°09'0 2.9
2018-Jun-07 21:00N 36°56' W 025°09'2 4.1
2018-Jun-07 20:30N 36°57' W 025°11'4 5.5
2018-Jun-07 19:46N 37°01' W 025°13'2 5.9
2018-Jun-07 19:23N 37°03' W 025°14'3 6.3
2018-Jun-07 18:57N 37°05' W 025°16'19 6.2
2018-Jun-07 15:56N 37°22' W 025°27'4 6.8
2018-Jun-07 15:20N 37°26' W 025°29'2 6.7
2018-Jun-07 14:59N 37°28' W 025°30'5 6.9
2018-Jun-07 14:19N 37°32' W 025°33'2 7.2
2018-Jun-07 14:00N 37°34' W 025°34'3 6.8
2018-Jun-07 13:30N 37°37' W 025°35'7 6.9
2018-Jun-07 12:30N 37°43' W 025°39'1 0.0
2018-Jun-05 17:47N 37°44' W 025°40'0 0.0
2018-Jun-05 09:36N 37°44' W 025°40'0 0.0
2018-Jun-05 09:30N 37°44' W 025°40'0 0.6
2018-Jun-05 09:00N 37°44' W 025°40'4 5.3
2018-Jun-05 08:13N 37°45' W 025°45'2 7.4
2018-Jun-05 08:00N 37°46' W 025°46'3 7.0
2018-Jun-05 07:30N 37°48' W 025°50'3 6.1
2018-Jun-05 07:00N 37°49' W 025°53'4 7.0
2018-Jun-05 06:30N 37°51' W 025°57'4 8.0
2018-Jun-05 06:00N 37°54' W 026°01'4 8.4
2018-Jun-05 05:30N 37°56' W 026°05'  
2018-Jun-02 09:28N 38°34' W 028°18'3 7.5
2018-Jun-02 09:00N 38°35' W 028°23'3 6.7
2018-Jun-02 08:30N 38°35' W 028°27'3 5.7
2018-Jun-02 07:59N 38°34' W 028°31'3 6.2
2018-Jun-02 07:30N 38°33' W 028°34'3 5.5
2018-Jun-02 07:00N 38°32' W 028°37'0 0.1
2018-Jun-02 06:30N 38°32' W 028°37'0 0.0
2018-May-31 13:06N 38°32' W 028°37'  
Track history (hours):
 
Tides and Currents Weather Stations Pressure Air Temp Water Temp Dewpoint Dewpoint Depression Visibility Wind Speed Wind Dir Waves Ship Positions

Spindrift

Owner: Byrne, Anthony R, Buffalo, NY. More information available from US FCC via Universal Licensing System and Coast Guard Vessel Documentation Center.

Last reported at 2018-Jun-09 18:59 UTC. Time now 2018-Jun-20 20:49 UTC.
Position N 37°02' W 024°29'.
Warning: this ship's position is 11 days out of date.

Length 17 m.

Type: Sailing vessel. MMSI: 368005630.

Date/timePositionNaut miles runAvg speedWind from/ knotsBaromVisibWave heightAir tempDewpointWater temp
2018-Jun-09 18:59N 37°02' W 024°29'3 6.2
2018-Jun-09 18:29N 37°01' W 024°33'3 6.3
2018-Jun-09 17:59N 37°00' W 024°37'3 5.6
2018-Jun-09 17:30N 36°60' W 024°40'1 0.6
2018-Jun-09 15:51N 36°59' W 024°39'5 6.4
2018-Jun-09 15:00N 36°58' W 024°46'3 5.9
2018-Jun-09 14:30N 36°57' W 024°50'3 6.0
2018-Jun-09 14:00N 36°56' W 024°53'4 7.0
2018-Jun-09 13:30N 36°56' W 024°58'3 6.9
2018-Jun-09 13:00N 36°55' W 025°02'3 6.0
2018-Jun-09 12:30N 36°55' W 025°05'3 6.1
2018-Jun-09 12:00N 36°56' W 025°09'0 0.8
2018-Jun-09 11:30N 36°56' W 025°09'0 0.4
2018-Jun-09 10:15N 36°57' W 025°09'0 0.0
2018-Jun-07 21:08N 36°57' W 025°09'0 2.9
2018-Jun-07 21:00N 36°56' W 025°09'2 4.1
2018-Jun-07 20:30N 36°57' W 025°11'4 5.5
2018-Jun-07 19:46N 37°01' W 025°13'2 5.9
2018-Jun-07 19:23N 37°03' W 025°14'3 6.3
2018-Jun-07 18:57N 37°05' W 025°16'19 6.2
2018-Jun-07 15:56N 37°22' W 025°27'4 6.8
2018-Jun-07 15:20N 37°26' W 025°29'2 6.7
2018-Jun-07 14:59N 37°28' W 025°30'5 6.9
2018-Jun-07 14:19N 37°32' W 025°33'2 7.2
2018-Jun-07 14:00N 37°34' W 025°34'3 6.8
2018-Jun-07 13:30N 37°37' W 025°35'7 6.9
2018-Jun-07 12:30N 37°43' W 025°39'1 0.0
2018-Jun-05 17:47N 37°44' W 025°40'0 0.0
2018-Jun-05 09:36N 37°44' W 025°40'0 0.0
2018-Jun-05 09:30N 37°44' W 025°40'0 0.6
2018-Jun-05 09:00N 37°44' W 025°40'4 5.3
2018-Jun-05 08:13N 37°45' W 025°45'2 7.4
2018-Jun-05 08:00N 37°46' W 025°46'3 7.0
2018-Jun-05 07:30N 37°48' W 025°50'3 6.1
2018-Jun-05 07:00N 37°49' W 025°53'4 7.0
2018-Jun-05 06:30N 37°51' W 025°57'4 8.0
2018-Jun-05 06:00N 37°54' W 026°01'4 8.4
2018-Jun-05 05:30N 37°56' W 026°05'  
2018-Jun-02 09:28N 38°34' W 028°18'3 7.5
2018-Jun-02 09:00N 38°35' W 028°23'3 6.7
2018-Jun-02 08:30N 38°35' W 028°27'3 5.7
2018-Jun-02 07:59N 38°34' W 028°31'3 6.2
2018-Jun-02 07:30N 38°33' W 028°34'3 5.5
2018-Jun-02 07:00N 38°32' W 028°37'0 0.1
2018-Jun-02 06:30N 38°32' W 028°37'0 0.0
2018-May-31 13:06N 38°32' W 028°37'  

Dump ship's entire track history